Time;durP1;ratioP1;P1;durP2;ratioP2;P2;SDS_P1;SDS_P2;PMS_P1;PMS_P2;Temp;Humidity;BMP_temperature;BMP_pressure;BME280_temperature;BME280_humidity;BME280_pressure;Samples;Min_cycle;Max_cycle;Signal;HPM_P1;HPM_P2
2022/01/01 00:00:33;;;;;;;7.85;5.17;;;;;;;;;;2035264;86;28396;-65
2022/01/01 00:03:37;;;;;;;5.95;4.62;;;;;;;11.43;79.16;100277.83;2089237;84;27663;-62
2022/01/01 00:06:41;;;;;;;7.10;4.42;;;;;;;11.44;79.20;100292.98;2079706;84;32575;-63
2022/01/01 00:09:44;;;;;;;3.50;2.87;;;;;;;11.43;79.21;100301.52;2057263;84;33804;-65
2022/01/01 00:12:48;;;;;;;5.30;4.20;;;;;;;11.44;79.33;100299.23;2048221;85;29338;-63
2022/01/01 00:15:49;;;;;;;5.92;3.65;;;;;;;11.44;79.31;100301.91;2046325;85;27742;-65
2022/01/01 00:18:51;;;;;;;5.60;3.70;;;;;;;11.44;79.32;100305.05;2041987;85;28609;-64
2022/01/01 00:21:54;;;;;;;8.25;6.60;;;;;;;11.45;79.34;100304.10;2049552;85;31031;-62
2022/01/01 00:24:56;;;;;;;5.30;3.80;;;;;;;11.46;79.38;100308.06;2033005;85;33784;-62
2022/01/01 00:27:58;;;;;;;4.20;3.80;;;;;;;11.47;79.43;100311.14;2035068;87;29934;-62
2022/01/01 00:31:01;;;;;;;4.70;3.90;;;;;;;11.48;79.42;100310.65;2033118;87;27689;-63
2022/01/01 00:34:03;;;;;;;5.25;4.28;;;;;;;11.49;79.43;100313.73;2033886;86;29541;-62
2022/01/01 00:37:06;;;;;;;5.15;3.85;;;;;;;11.48;79.45;100315.56;2033723;87;31114;-63
2022/01/01 00:40:11;;;;;;;7.90;5.33;;;;;;;11.50;79.48;100314.13;2034123;87;33176;-63
2022/01/01 00:43:13;;;;;;;;;;;;;;;11.50;79.48;100314.13;2005440;88;29322;-62
2022/01/01 00:46:15;;;;;;;6.53;4.25;;;;;;;11.49;79.52;100315.07;2001223;88;27748;-61
2022/01/01 00:49:18;;;;;;;7.25;5.87;;;;;;;11.49;79.58;100321.31;2001021;88;29570;-62
2022/01/01 00:52:21;;;;;;;6.08;4.47;;;;;;;11.50;79.59;100330.22;2001203;88;31104;-63
2022/01/01 00:55:23;;;;;;;6.17;5.10;;;;;;;11.51;79.61;100329.27;2000904;88;33815;-62
2022/01/01 00:58:25;;;;;;;7.55;5.40;;;;;;;11.52;79.63;100342.59;2000727;88;30590;-62
2022/01/01 01:01:27;;;;;;;8.28;5.03;;;;;;;11.52;79.62;100341.74;2000910;88;27749;-62
2022/01/01 01:04:29;;;;;;;7.85;4.87;;;;;;;11.51;79.70;100344.88;2030412;87;28758;-63
2022/01/01 01:07:30;;;;;;;7.05;5.58;;;;;;;11.51;79.72;100341.34;2015377;87;31655;-62
2022/01/01 01:10:32;;;;;;;7.47;5.05;;;;;;;11.52;79.75;100353.81;2001207;88;33759;-63
2022/01/01 01:13:38;;;;;;;8.28;4.87;;;;;;;11.52;79.83;100361.86;2001318;88;30288;-62
2022/01/01 01:16:40;;;;;;;6.53;4.70;;;;;;;11.53;79.84;100366.28;1996678;88;27494;-62
2022/01/01 01:19:42;;;;;;;4.97;4.10;;;;;;;11.52;79.90;100376.62;1997667;88;29145;-62
2022/01/01 01:22:45;;;;;;;6.33;4.28;;;;;;;11.50;80.01;100370.46;2022419;87;31102;-63
2022/01/01 01:25:48;;;;;;;6.33;4.45;;;;;;;11.49;80.01;100383.48;2002074;87;33004;-63
2022/01/01 01:28:52;;;;;;;4.45;3.67;;;;;;;11.49;80.05;100380.80;2030487;87;29333;-62
2022/01/01 01:31:57;;;;;;;6.97;4.80;;;;;;;11.49;80.05;100380.80;1940614;91;27890;-63
2022/01/01 01:35:01;;;;;;;7.00;4.87;;;;;;;11.48;80.14;100389.33;1939865;91;32357;-62
2022/01/01 01:38:03;;;;;;;5.20;4.25;;;;;;;11.36;80.14;100367.14;1923530;91;30666;-62
2022/01/01 01:41:07;;;;;;;7.12;4.70;;;;;;;11.48;80.21;100395.16;1934429;92;33840;-63
2022/01/01 01:44:33;;;;;;;5.45;4.10;;;;;;;11.46;80.35;100391.68;1906160;93;29344;-65
2022/01/01 01:47:37;;;;;;;6.25;4.85;;;;;;;11.46;80.38;100397.93;1906741;93;27832;-63
2022/01/01 01:50:40;;;;;;;6.20;4.65;;;;;;;11.46;80.41;100401.95;1934250;92;29705;-63
2022/01/01 01:53:43;;;;;;;5.97;4.75;;;;;;;11.44;80.45;100403.84;1937849;91;31065;-62
2022/01/01 01:56:47;;;;;;;6.78;4.85;;;;;;;11.42;80.47;100405.73;1944946;91;32966;-62
2022/01/01 01:59:50;;;;;;;8.18;5.22;;;;;;;11.39;80.56;100408.11;1914548;93;29353;-62
2022/01/01 02:02:52;;;;;;;7.15;4.78;;;;;;;11.39;80.62;100409.45;1945816;91;27747;-63
2022/01/01 02:05:55;;;;;;;6.90;5.10;;;;;;;11.37;80.68;100408.66;1923792;91;28736;-64
2022/01/01 02:08:57;;;;;;;6.87;5.47;;;;;;;11.36;80.70;100414.97;1945819;91;31212;-64
2022/01/01 02:11:59;;;;;;;7.92;4.97;;;;;;;11.35;80.72;100421.28;1945831;91;34280;-64
2022/01/01 02:18:03;;;;;;;8.30;5.05;;;;;;;11.35;80.81;100415.91;1947610;91;27766;-63
2022/01/01 02:21:05;;;;;;;7.58;4.92;;;;;;;11.34;80.82;100414.63;1947192;91;28587;-62
2022/01/01 02:24:07;;;;;;;7.35;5.17;;;;;;;11.34;80.83;100422.22;1947355;91;32036;-64
2022/01/01 02:27:09;;;;;;;9.70;5.92;;;;;;;11.34;80.88;100417.31;1951330;86;35130;-64
2022/01/01 02:30:14;;;;;;;5.75;4.55;;;;;;;11.36;80.93;100415.42;2069351;86;29493;-63
2022/01/01 02:33:17;;;;;;;10.80;5.85;;;;;;;11.33;80.88;100420.48;2069131;86;27716;-65
2022/01/01 02:36:34;;;;;;;8.33;5.15;;;;;;;11.34;80.94;100426.25;2068270;84;28624;-63
2022/01/01 02:39:35;;;;;;;6.42;5.45;;;;;;;11.34;80.95;100426.25;2041121;87;32041;-62
2022/01/01 02:42:39;;;;;;;7.55;5.90;;;;;;;11.34;80.98;100428.05;2041873;87;34432;-61
2022/01/01 02:45:41;;;;;;;7.70;5.95;;;;;;;11.33;81.02;100427.19;2042273;87;28792;-63
2022/01/01 02:48:45;;;;;;;7.50;5.65;;;;;;;11.33;81.02;100435.72;2042373;87;27639;-62
2022/01/01 02:51:47;;;;;;;8.18;6.22;;;;;;;11.34;81.13;100438.77;2056487;85;29468;-63
2022/01/01 02:54:49;;;;;;;9.80;5.90;;;;;;;11.33;81.13;100437.06;2026821;87;32454;-63
2022/01/01 02:57:51;;;;;;;9.28;6.35;;;;;;;11.33;81.20;100435.72;2067566;86;33932;-63
2022/01/01 03:00:53;;;;;;;8.33;6.28;;;;;;;11.33;81.17;100436.58;2040667;87;30148;-63
2022/01/01 03:03:54;;;;;;;8.40;6.45;;;;;;;11.35;81.23;100456.15;2042387;87;27794;-64
2022/01/01 03:06:57;;;;;;;9.98;7.20;;;;;;;11.33;81.28;100447.80;2042367;87;28813;-63
2022/01/01 03:09:59;;;;;;;8.68;6.80;;;;;;;11.34;81.29;100451.73;2042052;87;31328;-67
2022/01/01 03:13:01;;;;;;;8.90;6.95;;;;;;;11.32;81.24;100450.93;2042342;87;33752;-65
2022/01/01 03:16:03;;;;;;;12.65;7.55;;;;;;;11.32;81.33;100453.61;2036128;87;29468;-63
2022/01/01 03:19:05;;;;;;;7.87;6.95;;;;;;;11.31;81.39;100454.56;2035098;87;27724;-62
2022/01/01 03:22:07;;;;;;;9.50;6.87;;;;;;;11.33;81.43;100461.20;2035159;87;28645;-62
2022/01/01 03:25:09;;;;;;;8.68;7.10;;;;;;;11.33;81.44;100463.41;2033275;87;31098;-63
2022/01/01 03:28:11;;;;;;;8.25;6.45;;;;;;;11.33;81.42;100466.57;2034076;87;32988;-62
2022/01/01 03:31:12;;;;;;;7.70;6.55;;;;;;;11.33;81.50;100463.89;2034325;87;29351;-61
2022/01/01 03:34:15;;;;;;;8.85;7.12;;;;;;;11.32;81.57;100461.66;2032899;87;27772;-63
2022/01/01 03:37:16;;;;;;;7.60;6.58;;;;;;;11.33;81.60;100464.73;2034008;87;29996;-64
2022/01/01 03:40:18;;;;;;;7.55;6.42;;;;;;;11.33;81.61;100471.45;2034083;86;31983;-62
2022/01/01 03:43:20;;;;;;;9.85;6.28;;;;;;;11.32;81.57;100464.34;2034288;87;33345;-62
2022/01/01 03:46:22;;;;;;;8.65;6.40;;;;;;;11.32;81.62;100467.52;2033308;87;30551;-61
2022/01/01 03:49:26;;;;;;;6.95;5.67;;;;;;;11.32;81.63;100473.73;2032820;87;27717;-62
2022/01/01 03:52:28;;;;;;;8.28;6.37;;;;;;;11.32;81.67;100472.88;2031657;86;28835;-62
2022/01/01 03:55:30;;;;;;;7.15;6.20;;;;;;;11.32;81.71;100470.20;2032301;86;30120;-62
2022/01/01 03:58:32;;;;;;;8.23;6.28;;;;;;;11.31;81.68;100466.63;2032293;87;34300;-62
2022/01/01 04:01:34;;;;;;;10.05;6.80;;;;;;;11.32;81.76;100471.53;2032906;86;29861;-63
2022/01/01 04:04:36;;;;;;;7.03;6.10;;;;;;;11.32;81.78;100474.22;2032755;86;27705;-64
2022/01/01 04:07:37;;;;;;;6.25;5.55;;;;;;;11.30;81.86;100474.27;2032560;87;28665;-63
2022/01/01 04:10:40;;;;;;;8.53;6.05;;;;;;;11.31;81.87;100481.37;2034376;87;31675;-62
2022/01/01 04:13:42;;;;;;;8.63;6.10;;;;;;;11.31;81.83;100479.19;2034094;87;33801;-63
2022/01/01 04:16:46;;;;;;;7.85;5.80;;;;;;;11.31;81.87;100487.23;2034340;87;30714;-62
2022/01/01 04:19:48;;;;;;;8.37;6.17;;;;;;;11.31;81.87;100500.16;2033620;86;28408;-62
2022/01/01 04:22:50;;;;;;;7.40;6.08;;;;;;;11.32;81.88;100499.21;2041460;86;28429;-62
2022/01/01 04:25:52;;;;;;;10.63;6.00;;;;;;;11.31;81.89;100504.17;2047943;86;32508;-61
2022/01/01 04:28:55;;;;;;;6.60;5.65;;;;;;;11.31;81.85;100501.50;2047345;86;33005;-63
2022/01/01 04:31:58;;;;;;;7.60;6.03;;;;;;;11.31;81.85;100498.81;2048114;86;30550;-63
2022/01/01 04:35:00;;;;;;;7.50;5.67;;;;;;;11.31;81.84;100500.16;2048975;86;27656;-62
2022/01/01 04:38:02;;;;;;;6.65;5.62;;;;;;;11.31;81.91;100505.52;2050223;86;29296;-62
2022/01/01 04:41:06;;;;;;;8.80;5.75;;;;;;;11.31;81.85;100510.88;2050115;85;32245;-63
2022/01/01 04:44:08;;;;;;;7.25;5.58;;;;;;;11.31;81.95;100517.59;2049400;86;33052;-63
2022/01/01 04:47:10;;;;;;;9.03;6.20;;;;;;;11.32;81.94;100519.81;2050088;85;29341;-64
2022/01/01 04:50:12;;;;;;;7.25;5.60;;;;;;;11.31;81.97;100522.95;2050529;86;27685;-64
2022/01/01 04:53:17;;;;;;;8.33;5.72;;;;;;;11.30;82.01;100532.43;2051411;86;29362;-62
2022/01/01 04:56:20;;;;;;;8.75;5.42;;;;;;;11.29;82.05;100542.76;2051416;86;31028;-62
2022/01/01 04:59:22;;;;;;;7.25;5.97;;;;;;;11.29;82.08;100535.56;2017599;88;35306;-61
2022/01/01 05:02:26;;;;;;;6.22;5.20;;;;;;;11.29;82.14;100540.08;2018651;87;31502;-62
2022/01/01 05:05:28;;;;;;;9.03;6.15;;;;;;;11.28;82.15;100535.66;2024436;86;27802;-64
2022/01/01 05:08:30;;;;;;;9.73;6.05;;;;;;;11.28;82.16;100539.19;2050141;86;29141;-64
2022/01/01 05:11:31;;;;;;;7.85;6.25;;;;;;;11.29;82.15;100539.59;2050466;85;31020;-64
2022/01/01 05:14:34;;;;;;;7.47;6.17;;;;;;;11.29;82.21;100540.92;2050316;85;32953;-66
2022/01/01 05:17:36;;;;;;;8.60;5.92;;;;;;;11.30;82.22;100537.30;2051918;86;29353;-64
2022/01/01 05:20:38;;;;;;;6.92;6.12;;;;;;;11.31;82.23;100539.05;2051914;86;27745;-65
2022/01/01 05:23:39;;;;;;;6.20;4.90;;;;;;;11.33;82.27;100540.33;2051988;86;28658;-66
2022/01/01 05:26:41;;;;;;;8.40;6.28;;;;;;;11.33;82.25;100548.38;2052047;86;31159;-63
2022/01/01 05:29:43;;;;;;;8.53;6.25;;;;;;;11.32;82.29;100554.20;2052150;86;33204;-64
2022/01/01 05:32:45;;;;;;;6.67;5.30;;;;;;;11.32;82.37;100548.83;2052104;85;30485;-62
2022/01/01 05:35:47;;;;;;;7.83;5.53;;;;;;;11.32;82.35;100554.20;2051999;85;27766;-62
2022/01/01 05:38:49;;;;;;;7.03;5.17;;;;;;;11.32;82.35;100555.54;2050465;85;28478;-63
2022/01/01 05:41:54;;;;;;;5.45;4.67;;;;;;;11.33;82.36;100563.13;2050541;86;31657;-61
2022/01/01 05:44:54;;;;;;;7.40;5.08;;;;;;;11.32;82.33;100565.41;2050274;86;34214;-63
2022/01/01 05:47:56;;;;;;;6.30;4.20;;;;;;;11.30;82.40;100565.47;2050345;85;29395;-62
2022/01/01 05:50:58;;;;;;;6.55;4.22;;;;;;;11.31;82.42;100570.38;2050259;85;27760;-62
2022/01/01 05:54:05;;;;;;;5.50;4.08;;;;;;;11.30;82.44;100576.20;2049962;86;29440;-62
2022/01/01 05:57:07;;;;;;;5.80;5.05;;;;;;;11.29;82.42;100575.80;2037286;86;31034;-63
2022/01/01 06:00:11;;;;;;;5.17;4.62;;;;;;;11.31;82.47;100576.59;2050508;86;33977;-63
2022/01/01 06:03:15;;;;;;;5.12;4.25;;;;;;;11.32;82.42;100582.84;2050567;85;29361;-64
2022/01/01 06:06:17;;;;;;;6.00;4.85;;;;;;;11.32;82.46;100582.84;2051995;85;27588;-62
2022/01/01 06:09:19;;;;;;;6.80;5.22;;;;;;;11.33;82.45;100596.66;2051845;85;29914;-64
2022/01/01 06:12:20;;;;;;;7.28;5.10;;;;;;;11.33;82.49;100600.19;2051734;86;31693;-62
2022/01/01 06:15:23;;;;;;;6.95;5.03;;;;;;;11.33;82.43;100599.34;2052102;86;32952;-66
2022/01/01 06:18:25;;;;;;;5.75;5.17;;;;;;;11.32;82.47;100605.16;2052218;86;29949;-63
2022/01/01 06:21:26;;;;;;;6.85;5.58;;;;;;;11.32;82.54;100611.01;2052346;86;28339;-65
2022/01/01 06:24:28;;;;;;;8.95;5.37;;;;;;;11.31;82.51;100610.61;2050234;86;29244;-62
2022/01/01 06:27:30;;;;;;;7.50;5.70;;;;;;;11.30;82.51;100616.91;2048881;86;32295;-62
2022/01/01 06:30:34;;;;;;;6.95;5.53;;;;;;;11.30;82.54;100619.11;2056964;85;33790;-65
2022/01/01 06:33:36;;;;;;;13.53;5.95;;;;;;;11.29;82.55;100630.78;2083623;84;30145;-63
2022/01/01 06:36:38;;;;;;;6.45;5.72;;;;;;;11.30;82.59;100624.96;2101808;84;27657;-66
2022/01/01 06:39:40;;;;;;;7.33;5.85;;;;;;;11.29;82.55;100629.44;2064955;85;28654;-64
2022/01/01 06:42:41;;;;;;;10.15;6.40;;;;;;;11.27;82.54;100636.68;2046221;87;31818;-66
2022/01/01 06:45:43;;;;;;;9.08;6.30;;;;;;;11.28;82.64;100638.91;2046110;87;33811;-64
2022/01/01 06:48:45;;;;;;;11.40;5.97;;;;;;;11.27;82.60;100636.68;2046204;87;29345;-66
2022/01/01 06:51:47;;;;;;;8.30;6.03;;;;;;;11.28;82.60;100644.27;2045741;87;27599;-62
2022/01/01 06:54:49;;;;;;;9.55;6.83;;;;;;;11.30;82.64;100642.39;2044402;87;28916;-62
2022/01/01 06:57:50;;;;;;;9.95;5.92;;;;;;;11.27;82.64;100642.05;2044389;87;31238;-63
2022/01/01 07:00:52;;;;;;;7.85;6.03;;;;;;;11.28;82.69;100650.49;2050384;86;33993;-65
2022/01/01 07:03:54;;;;;;;8.03;5.97;;;;;;;11.28;82.69;100651.84;2049199;86;29428;-64
2022/01/01 07:06:56;;;;;;;12.07;6.50;;;;;;;11.28;82.69;100657.20;2050678;86;28115;-62
2022/01/01 07:09:57;;;;;;;8.80;6.47;;;;;;;11.28;82.71;100658.54;2051302;85;29018;-65
2022/01/01 07:12:59;;;;;;;11.73;8.05;;;;;;;11.26;82.73;100657.73;2051253;86;31644;-66
2022/01/01 07:16:01;;;;;;;12.75;7.80;;;;;;;11.24;82.72;100664.53;2049693;85;34181;-64
2022/01/01 07:19:04;;;;;;;12.03;7.55;;;;;;;11.26;82.76;100668.47;2050315;86;29603;-64
2022/01/01 07:22:06;;;;;;;12.90;7.45;;;;;;;11.27;82.75;100673.38;2050817;86;27662;-64
2022/01/01 07:25:09;;;;;;;10.15;7.67;;;;;;;11.27;82.79;100675.57;2034072;86;28688;-65
2022/01/01 07:28:14;;;;;;;13.28;8.73;;;;;;;11.27;82.76;100672.89;2034315;87;31113;-65
2022/01/01 07:31:15;;;;;;;11.93;8.25;;;;;;;11.28;82.73;100675.97;2034378;87;32994;-64
2022/01/01 07:34:17;;;;;;;11.93;8.40;;;;;;;11.29;82.71;100674.18;2017688;87;30144;-64
2022/01/01 07:37:19;;;;;;;11.60;8.43;;;;;;;11.29;82.69;100667.47;2033790;86;27802;-65
2022/01/01 07:40:21;;;;;;;12.00;8.48;;;;;;;11.30;82.68;100675.44;2031806;86;29880;-62
2022/01/01 07:43:23;;;;;;;12.28;8.10;;;;;;;11.32;82.63;100676.72;2032377;87;31921;-64
2022/01/01 07:46:27;;;;;;;14.60;8.50;;;;;;;11.33;82.60;100679.80;2033549;87;33028;-62
2022/01/01 07:49:28;;;;;;;14.85;9.55;;;;;;;11.34;82.57;100684.20;2033439;87;30556;-62
2022/01/01 07:52:30;;;;;;;13.78;8.45;;;;;;;11.36;82.55;100695.73;2029275;86;27763;-63
2022/01/01 07:55:33;;;;;;;14.07;8.53;;;;;;;11.38;82.50;100697.87;2029489;87;30069;-63
2022/01/01 07:58:36;;;;;;;14.73;9.05;;;;;;;11.39;82.48;100692.45;2029296;87;31505;-63
2022/01/01 08:01:40;;;;;;;13.22;8.13;;;;;;;11.40;82.44;100696.88;2032004;87;33365;-63
2022/01/01 08:04:41;;;;;;;13.43;9.35;;;;;;;11.41;82.39;100696.39;2032555;87;29394;-62
2022/01/01 08:07:46;;;;;;;14.07;8.93;;;;;;;11.42;82.39;100700.82;2032671;87;27688;-61
2022/01/01 08:10:48;;;;;;;13.25;8.70;;;;;;;11.43;82.36;100709.72;2032951;87;29665;-60
2022/01/01 08:13:53;;;;;;;18.98;9.10;;;;;;;11.44;82.35;100719.06;2032365;87;31493;-61
2022/01/01 08:17:06;;;;;;;14.70;9.00;;;;;;;11.48;82.38;100721.13;2032944;86;33192;-62
2022/01/01 08:20:09;;;;;;;15.83;9.35;;;;;;;11.49;82.29;100721.07;2032605;86;30608;-60
2022/01/01 08:23:12;;;;;;;16.12;9.05;;;;;;;11.52;82.27;100722.73;2038330;86;27836;-62
2022/01/01 08:26:14;;;;;;;14.63;9.03;;;;;;;11.52;82.23;100723.59;2041432;85;29660;-63
2022/01/01 08:29:17;;;;;;;17.35;9.03;;;;;;;11.52;82.19;100720.90;2086418;84;31499;-62
2022/01/01 08:32:19;;;;;;;13.18;8.40;;;;;;;11.53;82.16;100719.96;2085287;85;34161;-61
2022/01/01 08:35:21;;;;;;;13.25;8.90;;;;;;;11.54;82.16;100725.73;2068516;85;30617;-62
2022/01/01 08:38:23;;;;;;;15.08;9.20;;;;;;;11.55;82.11;100730.64;2051121;86;27710;-62
2022/01/01 08:41:26;;;;;;;15.48;9.08;;;;;;;11.56;82.08;100731.05;2048575;86;29568;-61
2022/01/01 08:44:28;;;;;;;14.80;8.65;;;;;;;11.60;82.15;100730.42;2047155;86;31597;-64
2022/01/01 08:47:29;;;;;;;19.20;9.58;;;;;;;11.64;82.09;100730.68;2048193;86;33825;-62
2022/01/01 08:50:31;;;;;;;15.50;8.33;;;;;;;11.67;82.07;100729.16;2052004;86;30167;-61
2022/01/01 08:53:34;;;;;;;15.40;8.70;;;;;;;11.70;82.04;100737.08;2052130;85;27656;-61
2022/01/01 08:56:36;;;;;;;16.07;8.58;;;;;;;11.74;82.12;100736.48;2051946;85;29852;-62
2022/01/01 08:59:38;;;;;;;13.32;8.83;;;;;;;11.77;82.09;100741.23;2050654;85;32284;-62
2022/01/01 09:02:41;;;;;;;12.18;7.62;;;;;;;11.79;81.97;100743.38;2050111;86;34202;-62
2022/01/01 09:05:43;;;;;;;18.73;9.15;;;;;;;11.80;81.90;100748.25;2050422;86;30530;-67
2022/01/01 09:08:45;;;;;;;15.90;8.98;;;;;;;11.81;81.91;100753.56;2050924;86;27701;-63
2022/01/01 09:11:47;;;;;;;14.80;9.55;;;;;;;11.85;81.94;100758.31;2051989;86;29174;-62
2022/01/01 09:14:49;;;;;;;15.98;9.15;;;;;;;11.89;81.95;100769.31;2051978;86;31872;-62
2022/01/01 09:17:51;;;;;;;13.38;8.90;;;;;;;11.92;81.87;100771.82;2051878;86;34379;-63
2022/01/01 09:20:53;;;;;;;13.35;8.83;;;;;;;11.94;81.86;100760.54;2050424;86;29138;-61
2022/01/01 09:23:56;;;;;;;15.20;8.73;;;;;;;11.98;81.82;100761.28;2050082;85;27645;-63
2022/01/01 09:26:58;;;;;;;13.53;9.03;;;;;;;11.99;81.72;100761.23;2050249;86;29324;-62
2022/01/01 09:30:00;;;;;;;15.43;9.00;;;;;;;11.99;81.51;100763.91;2051297;85;31480;-63
2022/01/01 09:33:03;;;;;;;13.75;7.90;;;;;;;12.02;81.57;100771.43;2052110;86;33768;-62
2022/01/01 09:36:07;;;;;;;12.63;7.47;;;;;;;12.03;81.46;100780.74;2051886;86;30086;-65
2022/01/01 09:39:09;;;;;;;14.50;8.88;;;;;;;12.03;81.36;100785.26;2051743;86;27729;-65
2022/01/01 09:42:12;;;;;;;15.38;10.20;;;;;;;11.99;81.25;100790.77;2050319;86;29326;-65
2022/01/01 09:45:13;;;;;;;32.35;24.60;;;;;;;11.98;81.23;100788.14;2050367;86;31086;-63
2022/01/01 09:48:19;;;;;;;20.85;15.60;;;;;;;11.98;81.29;100794.84;2050156;86;34349;-62
2022/01/01 09:51:21;;;;;;;;;;;;;;;11.96;81.36;100796.25;2052853;85;30079;-61
2022/01/01 09:54:23;;;;;;;32.90;26.10;;;;;;;11.93;81.37;100795.05;2071679;85;27676;-61
2022/01/01 09:57:25;;;;;;;17.70;13.90;;;;;;;11.89;81.48;100804.66;2042336;87;29555;-61
2022/01/01 10:00:28;;;;;;;31.50;27.32;;;;;;;11.82;81.40;100804.97;2063678;85;31423;-68
2022/01/01 10:03:45;;;;;;;44.58;34.00;;;;;;;11.79;81.58;100799.73;2074718;85;33825;-61
2022/01/01 10:07:05;;;;;;;39.33;29.85;;;;;;;11.76;81.57;100796.30;2067547;85;29157;-63
2022/01/01 10:10:25;;;;;;;31.73;25.02;;;;;;;11.73;81.65;100800.50;2028349;87;28342;-63
2022/01/01 10:13:31;;;;;;;28.40;22.85;;;;;;;11.74;81.86;100807.61;2101531;84;28620;-61
2022/01/01 10:16:44;;;;;;;26.15;19.35;;;;;;;11.76;81.92;100811.07;2096414;84;31113;-65
2022/01/01 10:19:50;;;;;;;21.70;16.93;;;;;;;11.80;81.98;100809.99;2040904;87;33764;-62
2022/01/01 10:22:52;;;;;;;11.78;10.05;;;;;;;11.83;82.01;100808.02;2050363;86;30290;-61
2022/01/01 10:29:36;;;;;;;11.10;7.95;;;;;;;11.82;81.82;100824.22;2018773;87;29593;-62
2022/01/01 10:33:11;;;;;;;11.00;9.05;;;;;;;11.78;81.78;100830.66;2019051;87;32227;-63
2022/01/01 10:36:14;;;;;;;25.40;15.78;;;;;;;11.76;81.87;100838.80;2019138;87;33344;-62
2022/01/01 10:39:21;;;;;;;24.30;15.70;;;;;;;11.76;81.94;100830.75;2050129;86;29371;-63
2022/01/01 10:42:23;;;;;;;44.80;23.35;;;;;;;11.79;81.98;100829.27;2050284;86;27718;-64
2022/01/01 10:45:47;;;;;;;17.45;12.10;;;;;;;11.80;81.94;100834.16;2050377;86;29506;-68
2022/01/01 10:51:50;;;;;;;16.67;10.20;;;;;;;11.82;81.91;100822.42;2050083;86;33659;-67
2022/01/01 10:55:04;;;;;;;15.58;10.98;;;;;;;11.83;81.85;100832.19;2050084;86;29428;-65
2022/01/01 10:58:06;;;;;;;14.98;9.90;;;;;;;11.85;81.85;100829.45;2051279;86;28044;-64
2022/01/01 11:01:09;;;;;;;15.75;10.32;;;;;;;11.88;81.81;100826.63;2051786;86;29909;-62
2022/01/01 11:04:13;;;;;;;19.02;10.30;;;;;;;11.89;81.79;100825.69;2051585;86;31933;-62
2022/01/01 11:07:30;;;;;;;27.90;14.77;;;;;;;11.91;81.73;100820.23;2050224;86;33507;-62
2022/01/01 11:10:33;;;;;;;26.80;14.43;;;;;;;11.94;81.71;100824.13;2049936;85;30025;-62
2022/01/01 11:13:36;;;;;;;27.93;13.25;;;;;;;11.97;81.68;100828.02;2050310;85;27661;-63
2022/01/01 11:16:38;;;;;;;27.87;13.10;;;;;;;12.00;81.59;100828.77;2049872;85;29917;-63
2022/01/01 11:19:41;;;;;;;24.98;14.40;;;;;;;12.06;81.63;100845.05;2051898;85;31999;-62
2022/01/01 11:22:43;;;;;;;21.37;12.40;;;;;;;12.10;81.58;100841.74;2051852;86;33002;-67
2022/01/01 11:25:45;;;;;;;28.17;12.15;;;;;;;12.16;81.62;100842.31;2051274;86;29398;-69
2022/01/01 11:28:47;;;;;;;17.05;10.38;;;;;;;12.22;81.58;100833.13;2061462;85;27724;-68
2022/01/01 11:31:52;;;;;;;20.50;12.35;;;;;;;12.25;81.44;100833.44;2051099;86;28832;-66
2022/01/01 11:34:55;;;;;;;22.77;9.28;;;;;;;12.28;81.35;100831.95;2051932;86;31049;-66
2022/01/01 11:38:02;;;;;;;19.90;12.15;;;;;;;12.36;81.45;100836.47;2023914;87;32985;-66
2022/01/01 11:41:14;;;;;;;15.00;9.65;;;;;;;12.42;81.45;100834.84;2072551;85;29338;-67
2022/01/01 11:44:35;;;;;;;20.50;12.10;;;;;;;12.46;81.26;100835.55;2039831;85;27870;-68
2022/01/01 11:47:37;;;;;;;22.77;11.55;;;;;;;12.52;81.29;100835.72;2048738;86;29495;-67
2022/01/01 11:50:45;;;;;;;20.62;11.10;;;;;;;12.57;81.17;100833.68;2050375;86;32051;-68
2022/01/01 11:54:19;;;;;;;18.35;11.78;;;;;;;12.61;81.05;100833.93;2050335;86;32953;-67
2022/01/01 11:57:27;;;;;;;18.90;11.22;;;;;;;12.67;81.01;100832.75;2050541;86;29344;-67
2022/01/01 12:00:30;;;;;;;17.17;11.10;;;;;;;12.71;80.90;100836.55;2050239;86;27910;-67
2022/01/01 12:03:38;;;;;;;23.18;11.80;;;;;;;12.79;80.89;100840.69;2050263;85;29485;-67
2022/01/01 12:06:39;;;;;;;16.95;9.75;;;;;;;12.85;80.66;100836.32;2049458;86;31063;-68
2022/01/01 12:10:05;;;;;;;16.20;9.40;;;;;;;12.88;80.60;100848.27;2052096;86;33154;-66
2022/01/01 12:13:09;;;;;;;21.05;11.10;;;;;;;12.93;80.50;100842.20;2051218;86;29371;-69
2022/01/01 12:16:21;;;;;;;49.00;26.87;;;;;;;12.98;80.45;100847.33;2049429;85;27655;-66
2022/01/01 12:19:25;;;;;;;18.52;11.10;;;;;;;13.02;80.23;100848.44;2050575;85;29642;-66
2022/01/01 12:22:27;;;;;;;18.37;10.53;;;;;;;13.05;80.12;100844.25;2050107;85;31037;-68
2022/01/01 12:25:33;;;;;;;21.40;10.88;;;;;;;13.08;80.18;100844.55;2050766;85;32970;-74
2022/01/01 12:28:42;;;;;;;21.25;10.43;;;;;;;13.13;79.93;100837.63;2051370;86;30241;-67
2022/01/01 12:31:58;;;;;;;19.07;10.18;;;;;;;13.11;79.65;100844.89;2052371;86;28277;-67
2022/01/01 12:35:07;;;;;;;;;;;;;;;13.10;79.67;100849.39;2053975;85;28667;-67
2022/01/01 12:38:13;;;;;;;18.90;10.35;;;;;;;13.07;79.36;100849.57;2069845;85;31002;-67
2022/01/01 12:41:22;;;;;;;21.60;9.68;;;;;;;13.06;79.46;100862.62;2064101;86;33118;-67
2022/01/01 12:44:31;;;;;;;16.15;9.25;;;;;;;13.06;79.42;100859.44;2064305;86;29373;-71
2022/01/01 12:47:28;;;;;;;14.20;8.28;;;;;;;13.09;79.39;100868.31;2068481;85;27649;-68
2022/01/01 12:50:30;;;;;;;18.75;8.70;;;;;;;13.09;79.19;100871.00;2074737;85;28686;-67
2022/01/01 12:53:37;;;;;;;14.63;8.38;;;;;;;13.06;79.13;100870.20;2072286;85;31632;-68
2022/01/01 12:56:40;;;;;;;18.52;8.23;;;;;;;13.04;78.86;100871.23;2071067;85;32969;-68
2022/01/01 12:59:42;;;;;;;15.10;7.17;;;;;;;13.04;78.93;100872.59;2048756;86;29388;-69
2022/01/01 13:02:44;;;;;;;23.75;11.73;;;;;;;13.02;78.66;100879.37;2050412;86;27782;-71
2022/01/01 13:05:48;;;;;;;22.00;11.60;;;;;;;13.00;78.59;100876.38;2051515;86;28671;-69
2022/01/01 13:08:50;;;;;;;22.60;12.53;;;;;;;12.94;78.51;100876.67;2050258;86;31124;-70
2022/01/01 13:11:59;;;;;;;19.77;11.25;;;;;;;12.91;78.40;100879.91;2049556;86;33494;-68
2022/01/01 13:15:01;;;;;;;22.82;11.05;;;;;;;12.89;78.52;100876.45;2050499;86;29337;-68
2022/01/01 13:18:02;;;;;;;20.35;11.50;;;;;;;12.88;78.46;100877.39;2035019;85;27737;-68
2022/01/01 13:21:09;;;;;;;23.55;11.10;;;;;;;12.86;78.48;100890.50;2051526;86;29429;-66
2022/01/01 13:24:10;;;;;;;20.23;9.33;;;;;;;12.81;78.36;100884.02;2049133;86;30949;-67
2022/01/01 13:27:12;;;;;;;17.65;10.32;;;;;;;12.78;78.32;100888.19;2041239;86;34030;-67
2022/01/01 13:30:14;;;;;;;18.85;10.82;;;;;;;12.74;78.42;100896.03;2040634;86;29469;-67
2022/01/01 13:33:16;;;;;;;16.50;10.28;;;;;;;12.72;78.42;100888.52;2041249;87;27738;-67
2022/01/01 13:36:42;;;;;;;17.50;9.78;;;;;;;12.69;78.38;100898.07;2042598;86;28675;-67
2022/01/01 13:39:43;;;;;;;;;;;;;;;12.67;78.45;100894.09;2043455;86;31041;-67
2022/01/01 13:42:45;;;;;;;17.77;10.08;;;;;;;12.64;78.36;100900.98;2040348;86;33670;-66
2022/01/01 13:45:47;;;;;;;16.57;9.15;;;;;;;12.58;78.31;100905.30;2039935;86;30674;-69
2022/01/01 13:48:51;;;;;;;18.60;10.03;;;;;;;12.54;78.33;100910.42;2016045;87;27764;-66
2022/01/01 13:51:58;;;;;;;14.53;8.95;;;;;;;12.50;78.24;100907.47;2065797;86;28623;-69
2022/01/01 13:55:03;;;;;;;16.17;8.85;;;;;;;12.42;78.11;100917.25;2043070;85;31112;-69
2022/01/01 13:58:05;;;;;;;15.75;9.55;;;;;;;12.37;78.10;100923.34;2043116;86;32958;-69
2022/01/01 14:01:07;;;;;;;19.23;9.48;;;;;;;12.31;78.25;100920.47;2043079;86;30130;-68
2022/01/01 14:04:10;;;;;;;19.87;9.53;;;;;;;12.29;78.25;100923.70;2041708;86;27718;-69
2022/01/01 14:07:18;;;;;;;15.95;8.95;;;;;;;12.25;78.31;100923.43;2041201;86;28737;-68
2022/01/01 14:10:24;;;;;;;22.27;12.70;;;;;;;12.22;78.22;100932.97;2041192;86;31935;-68
2022/01/01 14:13:36;;;;;;;24.25;12.18;;;;;;;12.18;78.22;100944.79;2050107;86;33117;-68
2022/01/01 14:16:46;;;;;;;19.52;10.05;;;;;;;12.13;78.28;100948.58;2041102;86;30092;-69
2022/01/01 14:19:48;;;;;;;20.57;10.63;;;;;;;12.09;78.36;100951.45;2041053;86;27824;-68